createdAt,value
2018-04-22T00:01:53.462Z,18.80
2018-04-22T00:04:22.478Z,18.70
2018-04-22T00:06:50.753Z,18.70
2018-04-22T00:09:18.990Z,18.70
2018-04-22T00:11:48.002Z,18.60
2018-04-22T00:14:16.243Z,18.60
2018-04-22T00:16:44.486Z,18.60
2018-04-22T00:19:12.738Z,18.60
2018-04-22T00:21:40.978Z,18.60
2018-04-22T00:24:10.064Z,18.50
2018-04-22T00:26:38.293Z,18.50
2018-04-22T00:29:06.544Z,18.50
2018-04-22T00:31:34.793Z,18.50
2018-04-22T00:34:03.031Z,18.50
2018-04-22T00:36:31.465Z,18.40
2018-04-22T00:39:00.469Z,18.40
2018-04-22T00:41:28.735Z,18.40
2018-04-22T00:43:56.978Z,18.30
2018-04-22T00:46:25.222Z,18.30
2018-04-22T00:48:53.467Z,18.30
2018-04-22T00:51:22.487Z,18.30
2018-04-22T00:54:08.522Z,18.20
2018-04-22T00:56:36.766Z,18.20
2018-04-22T00:59:05.002Z,18.20
2018-04-22T01:01:34.023Z,18.10
2018-04-22T01:04:02.279Z,18.10
2018-04-22T01:06:30.524Z,18.10
2018-04-22T01:08:58.822Z,18.10
2018-04-22T01:11:27.840Z,18.00
2018-04-22T01:13:56.082Z,18.00
2018-04-22T01:16:25.116Z,18.00
2018-04-22T01:18:53.354Z,17.90
2018-04-22T01:21:22.407Z,17.90
2018-04-22T01:23:50.657Z,17.90
2018-04-22T01:26:18.908Z,17.90
2018-04-22T01:28:47.931Z,17.90
2018-04-22T01:31:16.165Z,17.80
2018-04-22T01:33:45.203Z,17.80
2018-04-22T01:36:13.438Z,17.80
2018-04-22T01:38:42.466Z,17.80
2018-04-22T01:41:10.710Z,17.70
2018-04-22T01:43:39.734Z,17.70
2018-04-22T01:46:07.992Z,17.70
2018-04-22T01:48:37.050Z,17.70
2018-04-22T01:51:05.286Z,17.70
2018-04-22T01:53:33.537Z,17.70
2018-04-22T01:56:01.782Z,17.70
2018-04-22T01:58:30.025Z,17.70
2018-04-22T02:00:58.271Z,17.70
2018-04-22T02:03:26.517Z,17.70
2018-04-22T02:05:55.521Z,17.60
2018-04-22T02:08:24.522Z,17.60
2018-04-22T02:10:53.797Z,17.60
2018-04-22T02:13:22.038Z,17.60
2018-04-22T02:15:50.274Z,17.60
2018-04-22T02:18:19.309Z,17.60
2018-04-22T02:20:47.638Z,17.60
2018-04-22T02:23:16.650Z,17.60
2018-04-22T02:25:44.895Z,17.60
2018-04-22T02:28:13.902Z,17.50
2018-04-22T02:30:42.908Z,17.50
2018-04-22T02:33:11.165Z,17.50
2018-04-22T02:35:40.173Z,17.50
2018-04-22T02:38:08.421Z,17.50
2018-04-22T02:40:37.425Z,17.40
2018-04-22T02:43:06.444Z,17.40
2018-04-22T02:45:34.682Z,17.30
2018-04-22T02:48:02.938Z,17.30
2018-04-22T02:50:31.189Z,17.20
2018-04-22T02:52:59.427Z,17.10
2018-04-22T02:55:28.446Z,17.10
2018-04-22T02:57:56.694Z,17.10
2018-04-22T03:00:25.703Z,17.10
2018-04-22T03:02:54.071Z,17.00
2018-04-22T03:05:22.309Z,17.10
2018-04-22T03:07:50.550Z,17.00
2018-04-22T03:10:18.802Z,17.00
2018-04-22T03:12:47.105Z,17.00
2018-04-22T03:15:15.442Z,16.90
2018-04-22T03:17:43.957Z,16.90
2018-04-22T03:20:12.210Z,16.80
2018-04-22T03:22:40.449Z,16.90
2018-04-22T03:25:08.962Z,16.90
2018-04-22T03:27:37.205Z,16.80
2018-04-22T03:30:05.442Z,16.80
2018-04-22T03:32:33.695Z,16.70
2018-04-22T03:35:01.935Z,16.80
2018-04-22T03:37:30.171Z,16.70
2018-04-22T03:39:58.427Z,16.70
2018-04-22T03:42:26.714Z,16.70
2018-04-22T03:44:54.966Z,16.70
2018-04-22T03:47:23.995Z,16.60
2018-04-22T03:49:52.361Z,16.60
2018-04-22T03:52:20.589Z,16.60
2018-04-22T03:54:48.822Z,16.60
2018-04-22T03:57:17.079Z,16.50
2018-04-22T03:59:45.326Z,16.50
2018-04-22T04:02:14.337Z,16.50
2018-04-22T04:04:42.577Z,16.40
2018-04-22T04:07:10.818Z,16.40
2018-04-22T04:09:39.070Z,16.50
2018-04-22T04:12:07.313Z,16.50
2018-04-22T04:14:36.366Z,16.50
2018-04-22T04:17:04.602Z,16.50
2018-04-22T04:19:50.719Z,16.50
2018-04-22T04:22:36.602Z,16.50
2018-04-22T04:25:44.178Z,16.50
2018-04-22T04:28:12.423Z,16.50
2018-04-22T04:30:40.683Z,16.50
2018-04-22T04:33:08.906Z,16.50
2018-04-22T04:35:37.915Z,16.40
2018-04-22T04:38:06.146Z,16.40
2018-04-22T04:40:34.391Z,16.40
2018-04-22T04:43:02.625Z,16.40
2018-04-22T04:45:30.877Z,16.40
2018-04-22T04:47:59.110Z,16.40
2018-04-22T04:50:27.362Z,16.40
2018-04-22T04:52:55.606Z,16.40
2018-04-22T04:55:24.613Z,16.40
2018-04-22T04:57:53.622Z,16.40
2018-04-22T05:00:21.869Z,16.30
2018-04-22T05:02:50.106Z,16.40
2018-04-22T05:05:18.333Z,16.40
2018-04-22T05:07:47.349Z,16.40
2018-04-22T05:10:15.831Z,16.40
2018-04-22T05:12:44.085Z,16.50
2018-04-22T05:15:12.342Z,16.50
2018-04-22T05:17:40.590Z,16.50
2018-04-22T05:20:08.833Z,16.50
2018-04-22T05:22:37.098Z,16.60
2018-04-22T05:25:05.354Z,16.70
2018-04-22T05:27:34.368Z,16.90
2018-04-22T05:30:02.619Z,16.90
2018-04-22T05:32:31.634Z,17.10
2018-04-22T05:34:59.874Z,17.00
2018-04-22T05:37:28.122Z,17.20
2018-04-22T05:39:56.354Z,17.30
2018-04-22T05:42:25.372Z,17.20
2018-04-22T05:44:53.601Z,17.20
2018-04-22T05:47:22.618Z,17.30
2018-04-22T05:49:50.862Z,17.30
2018-04-22T05:52:19.098Z,17.40
2018-04-22T05:54:47.341Z,17.50
2018-04-22T05:57:15.590Z,17.50
2018-04-22T05:59:43.834Z,17.50
2018-04-22T06:02:12.115Z,17.60
2018-04-22T06:04:40.313Z,17.50
2018-04-22T06:07:08.559Z,17.40
2018-04-22T06:09:36.811Z,17.40
2018-04-22T06:12:05.037Z,17.40
2018-04-22T06:14:33.343Z,17.40
2018-04-22T06:17:02.653Z,17.40
2018-04-22T06:19:30.888Z,17.40
2018-04-22T06:21:59.122Z,17.50
2018-04-22T06:24:27.370Z,17.50
2018-04-22T06:26:56.398Z,17.70
2018-04-22T06:29:24.631Z,17.60
2018-04-22T06:31:53.645Z,17.80
2018-04-22T06:34:21.901Z,17.80
2018-04-22T06:36:51.003Z,17.90
2018-04-22T06:39:20.010Z,18.00
2018-04-22T06:41:48.258Z,17.90
2018-04-22T06:44:17.278Z,18.10
2018-04-22T06:46:45.553Z,18.10
2018-04-22T06:49:14.718Z,18.10
2018-04-22T06:51:43.726Z,18.30
2018-04-22T06:54:12.744Z,18.40
2018-04-22T06:56:40.994Z,18.30
2018-04-22T06:59:09.995Z,18.60
2018-04-22T07:01:38.226Z,18.50
2018-04-22T07:04:06.482Z,18.70
2018-04-22T07:06:34.717Z,18.80
2018-04-22T07:09:03.713Z,19.10
2018-04-22T07:11:32.308Z,19.00
2018-04-22T07:14:00.533Z,19.20
2018-04-22T07:16:28.768Z,19.40
2018-04-22T07:18:57.014Z,19.60
2018-04-22T07:21:26.014Z,19.80
2018-04-22T07:23:55.033Z,20.00
2018-04-22T07:26:23.264Z,19.90
2018-04-22T07:28:51.777Z,20.10
2018-04-22T07:31:20.014Z,20.30
2018-04-22T07:33:48.245Z,20.40
2018-04-22T07:36:16.488Z,20.50
2018-04-22T07:38:45.504Z,20.70
2018-04-22T07:41:13.738Z,20.60
2018-04-22T07:43:42.750Z,20.80
2018-04-22T07:46:11.758Z,20.90
2018-04-22T07:48:39.993Z,20.90
2018-04-22T07:51:08.229Z,21.00
2018-04-22T07:57:01.101Z,21.50
2018-04-22T07:59:30.200Z,21.80
2018-04-22T08:01:59.206Z,22.10
2018-04-22T08:04:27.456Z,22.00
2018-04-22T08:06:55.695Z,22.30
2018-04-22T08:09:23.939Z,22.50
2018-04-22T08:11:52.165Z,22.80
2018-04-22T08:14:20.890Z,23.00
2018-04-22T08:16:49.138Z,23.10
2018-04-22T08:19:17.383Z,23.30
2018-04-22T08:21:46.494Z,23.50
2018-04-22T08:24:14.818Z,23.60
2018-04-22T08:26:43.074Z,23.70
2018-04-22T08:29:12.090Z,23.70
2018-04-22T08:31:40.326Z,23.60
2018-04-22T08:34:08.572Z,23.80
2018-04-22T08:36:36.855Z,23.80
2018-04-22T08:39:05.107Z,23.90
2018-04-22T08:41:33.345Z,24.10
2018-04-22T08:44:02.626Z,24.40
2018-04-22T08:46:30.829Z,24.40
2018-04-22T08:48:59.847Z,24.50
2018-04-22T08:51:28.414Z,24.50
2018-04-22T08:53:56.664Z,24.70
2018-04-22T08:56:24.900Z,24.80
2018-04-22T08:58:53.147Z,24.80
2018-04-22T09:01:21.389Z,25.00
2018-04-22T09:03:50.441Z,25.30
2018-04-22T09:06:18.686Z,25.20
2018-04-22T09:08:46.936Z,25.30
2018-04-22T09:11:15.938Z,25.40
2018-04-22T09:13:44.950Z,25.40
2018-04-22T09:16:13.184Z,25.30
2018-04-22T09:18:41.429Z,25.40
2018-04-22T09:21:09.670Z,25.40
2018-04-22T09:23:37.941Z,25.60
2018-04-22T09:26:06.952Z,25.90
2018-04-22T09:28:35.197Z,25.80
2018-04-22T09:31:04.197Z,26.20
2018-04-22T09:33:33.219Z,26.40
2018-04-22T09:36:01.454Z,26.40
2018-04-22T09:38:30.476Z,26.70
2018-04-22T09:40:58.710Z,26.60
2018-04-22T09:43:26.962Z,26.80
2018-04-22T09:45:55.262Z,26.80
2018-04-22T09:48:23.459Z,27.10
2018-04-22T09:50:52.471Z,27.30
2018-04-22T09:53:20.763Z,27.20
2018-04-22T09:55:49.309Z,27.30
2018-04-22T09:58:18.309Z,27.40
2018-04-22T10:00:47.358Z,27.30
2018-04-22T10:03:15.603Z,27.40
2018-04-22T10:05:49.734Z,27.40
2018-04-22T10:08:17.951Z,27.50
2018-04-22T10:10:46.957Z,27.70
2018-04-22T10:13:15.962Z,28.00
2018-04-22T10:15:44.538Z,27.90
2018-04-22T10:18:12.781Z,28.10
2018-04-22T10:20:41.026Z,28.20
2018-04-22T10:23:09.295Z,28.10
2018-04-22T10:25:37.642Z,28.20
2018-04-22T10:28:05.914Z,28.40
2018-04-22T10:30:34.185Z,28.50
2018-04-22T10:33:03.197Z,28.80
2018-04-22T10:35:31.440Z,28.70
2018-04-22T10:37:59.682Z,28.90
2018-04-22T10:40:27.949Z,29.10
2018-04-22T10:42:56.201Z,29.30
2018-04-22T10:45:24.462Z,29.40
2018-04-22T10:47:52.708Z,29.40
2018-04-22T10:50:20.938Z,29.50
2018-04-22T10:52:49.194Z,29.70
2018-04-22T10:55:17.443Z,30.00
2018-04-22T10:57:45.672Z,30.10
2018-04-22T11:00:13.926Z,30.20
2018-04-22T11:02:42.162Z,30.30
2018-04-22T11:05:10.502Z,30.30
2018-04-22T11:07:39.453Z,30.20
2018-04-22T11:10:08.476Z,30.30
2018-04-22T11:12:36.713Z,30.20
2018-04-22T11:15:05.730Z,30.40
2018-04-22T11:17:33.970Z,30.30
2018-04-22T11:20:02.224Z,30.50
2018-04-22T11:22:30.453Z,30.40
2018-04-22T11:24:58.697Z,30.50
2018-04-22T11:27:26.951Z,30.40
2018-04-22T11:29:55.174Z,30.40
2018-04-22T11:32:24.178Z,30.50
2018-04-22T11:34:52.443Z,30.40
2018-04-22T11:37:20.675Z,30.50
2018-04-22T11:39:48.915Z,30.40
2018-04-22T11:42:17.273Z,30.30
2018-04-22T11:44:45.510Z,30.30
2018-04-22T11:47:13.845Z,30.40
2018-04-22T11:49:42.066Z,30.40
2018-04-22T11:52:11.091Z,29.70
2018-04-22T11:54:40.095Z,29.60
2018-04-22T11:57:08.338Z,29.50
2018-04-22T11:59:37.355Z,29.50
2018-04-22T12:02:05.594Z,29.40
2018-04-22T12:04:33.829Z,29.50
2018-04-22T12:07:02.342Z,29.30
2018-04-22T12:09:30.581Z,29.20
2018-04-22T12:11:58.817Z,29.10
2018-04-22T12:14:27.833Z,29.00
2018-04-22T12:16:56.077Z,28.90
2018-04-22T12:19:25.086Z,28.70
2018-04-22T12:21:54.219Z,28.70
2018-04-22T12:24:22.467Z,28.60
2018-04-22T12:26:51.863Z,28.70
2018-04-22T12:29:20.866Z,28.70
2018-04-22T12:31:49.125Z,28.60
2018-04-22T12:34:17.342Z,28.60
2018-04-22T12:36:45.587Z,28.60
2018-04-22T12:39:13.823Z,28.60
2018-04-22T12:41:43.589Z,28.70
2018-04-22T12:44:11.859Z,28.60
2018-04-22T12:46:40.098Z,28.60
2018-04-22T12:49:08.362Z,28.40
2018-04-22T12:51:36.673Z,28.10
2018-04-22T12:54:05.685Z,27.90
2018-04-22T12:56:33.913Z,27.80
2018-04-22T12:59:02.162Z,27.90
2018-04-22T13:01:30.402Z,27.80
2018-04-22T13:03:58.644Z,27.70
2018-04-22T13:06:26.886Z,27.70
2018-04-22T13:08:55.121Z,27.70
2018-04-22T13:11:23.387Z,27.90
2018-04-22T13:13:52.689Z,27.80
2018-04-22T13:16:21.699Z,27.70
2018-04-22T13:18:49.930Z,27.70
2018-04-22T13:21:18.249Z,27.60
2018-04-22T13:23:47.262Z,27.10
2018-04-22T13:26:15.502Z,27.00
2018-04-22T13:28:44.734Z,26.60
2018-04-22T13:31:12.966Z,26.50
2018-04-22T13:33:43.283Z,26.40
2018-04-22T13:36:12.423Z,26.40
2018-04-22T13:38:40.649Z,26.40
2018-04-22T13:41:08.893Z,26.50
2018-04-22T13:43:37.149Z,26.40
2018-04-22T13:46:05.753Z,26.40
2018-04-22T13:48:34.230Z,26.50
2018-04-22T13:51:02.461Z,26.50
2018-04-22T13:53:31.510Z,26.80
2018-04-22T13:55:59.756Z,26.70
2018-04-22T13:58:27.998Z,26.90
2018-04-22T14:00:57.006Z,27.10
2018-04-22T14:03:25.587Z,27.10
2018-04-22T14:05:53.821Z,27.20
2018-04-22T14:08:22.822Z,27.30
2018-04-22T14:10:51.086Z,27.30
2018-04-22T14:13:19.321Z,27.30
2018-04-22T14:15:47.562Z,27.30
2018-04-22T14:18:15.807Z,27.40
2018-04-22T14:20:44.040Z,27.50
2018-04-22T14:23:12.276Z,27.60
2018-04-22T14:25:40.538Z,27.60
2018-04-22T14:28:08.770Z,27.70
2018-04-22T14:30:37.014Z,27.70
2018-04-22T14:33:06.025Z,27.50
2018-04-22T14:35:35.044Z,27.50
2018-04-22T14:38:03.293Z,27.40
2018-04-22T14:40:32.297Z,27.50
2018-04-22T14:43:00.765Z,27.40
2018-04-22T14:45:46.958Z,27.40
2018-04-22T14:48:15.970Z,27.50
2018-04-22T14:50:44.260Z,27.40
2018-04-22T14:53:12.471Z,27.50
2018-04-22T14:55:40.761Z,27.40
2018-04-22T14:58:09.002Z,27.30
2018-04-22T15:00:37.246Z,27.10
2018-04-22T15:03:05.474Z,27.00
2018-04-22T15:05:33.722Z,26.90
2018-04-22T15:08:01.989Z,26.80
2018-04-22T15:10:30.227Z,26.70
2018-04-22T15:12:59.251Z,26.50
2018-04-22T15:15:27.490Z,26.50
2018-04-22T15:17:56.503Z,26.30
2018-04-22T15:20:24.750Z,26.30
2018-04-22T15:22:53.084Z,26.20
2018-04-22T15:25:21.313Z,26.20
2018-04-22T15:27:50.334Z,26.10
2018-04-22T15:30:18.592Z,26.10
2018-04-22T15:32:47.622Z,26.00
2018-04-22T15:35:15.878Z,25.90
2018-04-22T15:37:44.153Z,25.80
2018-04-22T15:40:12.389Z,25.80
2018-04-22T15:42:40.705Z,25.80
2018-04-22T15:45:09.699Z,25.60
2018-04-22T15:47:37.995Z,25.60
2018-04-22T15:50:06.550Z,25.60
2018-04-22T15:52:34.792Z,25.50
2018-04-22T15:55:03.023Z,25.50
2018-04-22T15:57:31.291Z,25.40
2018-04-22T15:59:59.545Z,25.40
2018-04-22T16:02:28.542Z,25.30
2018-04-22T16:04:56.790Z,25.30
2018-04-22T16:07:25.022Z,25.30
2018-04-22T16:09:53.574Z,25.30
2018-04-22T16:12:22.580Z,25.20
2018-04-22T16:14:50.817Z,25.20
2018-04-22T16:17:19.437Z,25.20
2018-04-22T16:19:47.672Z,25.20
2018-04-22T16:22:15.982Z,25.20
2018-04-22T16:24:44.480Z,25.20
2018-04-22T16:27:12.730Z,25.20
2018-04-22T16:29:41.734Z,25.10
2018-04-22T16:32:09.985Z,25.00
2018-04-22T16:34:39.006Z,25.00
2018-04-22T16:37:07.235Z,25.00
2018-04-22T16:39:35.473Z,25.00
2018-04-22T16:42:03.721Z,24.90
2018-04-22T16:44:31.974Z,24.90
2018-04-22T16:47:00.213Z,24.90
2018-04-22T16:49:28.458Z,24.80
2018-04-22T16:51:56.694Z,24.80
2018-04-22T16:54:24.928Z,24.70
2018-04-22T16:56:53.194Z,24.70
2018-04-22T16:59:21.438Z,24.60
2018-04-22T17:01:50.447Z,24.50
2018-04-22T17:04:18.694Z,24.50
2018-04-22T17:06:47.710Z,24.40
2018-04-22T17:09:15.945Z,24.40
2018-04-22T17:11:44.201Z,24.50
2018-04-22T17:14:12.742Z,24.40
2018-04-22T17:16:41.738Z,24.40
2018-04-22T17:19:09.970Z,24.30
2018-04-22T17:21:38.217Z,24.40
2018-04-22T17:24:06.522Z,24.30
2018-04-22T17:26:35.568Z,24.20
2018-04-22T17:29:03.809Z,24.20
2018-04-22T17:31:32.846Z,24.10
2018-04-22T17:34:01.400Z,24.10
2018-04-22T17:36:30.402Z,24.00
2018-04-22T17:38:58.694Z,24.00
2018-04-22T17:41:26.976Z,24.00
2018-04-22T17:43:55.466Z,23.90
2018-04-22T17:46:23.732Z,23.80
2018-04-22T17:48:51.957Z,23.80
2018-04-22T17:51:20.222Z,23.70
2018-04-22T17:53:48.503Z,23.70
2018-04-22T17:56:16.753Z,23.70
2018-04-22T17:58:45.008Z,23.60
2018-04-22T18:01:13.572Z,23.60
2018-04-22T18:03:42.625Z,23.50
2018-04-22T18:06:10.882Z,23.40
2018-04-22T18:08:39.133Z,23.40
2018-04-22T18:11:07.370Z,23.40
2018-04-22T18:13:36.373Z,23.30
2018-04-22T18:16:05.394Z,23.20
2018-04-22T18:18:33.645Z,23.20
2018-04-22T18:21:02.657Z,23.10
2018-04-22T18:23:30.890Z,23.10
2018-04-22T18:25:59.926Z,23.00
2018-04-22T18:28:28.162Z,23.00
2018-04-22T18:30:56.406Z,23.00
2018-04-22T18:33:24.638Z,22.90
2018-04-22T18:35:52.890Z,22.90
2018-04-22T18:38:21.126Z,22.80
2018-04-22T18:40:49.374Z,22.80
2018-04-22T18:43:17.610Z,22.70
2018-04-22T18:45:46.652Z,22.60
2018-04-22T18:48:14.914Z,22.60
2018-04-22T18:50:43.213Z,22.60
2018-04-22T18:53:11.463Z,22.50
2018-04-22T18:55:39.709Z,22.50
2018-04-22T18:58:07.962Z,22.50
2018-04-22T19:00:36.207Z,22.40
2018-04-22T19:03:04.436Z,22.40
2018-04-22T19:05:32.694Z,22.30
2018-04-22T19:08:00.926Z,22.30
2018-04-22T19:10:29.167Z,22.20
2018-04-22T19:12:57.696Z,22.20
2018-04-22T19:15:25.938Z,22.10
2018-04-22T19:17:54.943Z,22.00
2018-04-22T19:20:23.198Z,22.00
2018-04-22T19:22:52.214Z,21.90
2018-04-22T19:25:20.458Z,21.80
2018-04-22T19:27:48.751Z,21.90
2018-04-22T19:30:17.742Z,21.80
2018-04-22T19:32:46.757Z,21.80
2018-04-22T19:35:15.010Z,21.60
2018-04-22T19:37:44.118Z,21.60
2018-04-22T19:40:13.177Z,21.60
2018-04-22T19:42:41.374Z,21.60
2018-04-22T19:45:10.507Z,21.50
2018-04-22T19:47:38.746Z,21.40
2018-04-22T19:50:07.757Z,21.40
2018-04-22T19:52:36.006Z,21.30
2018-04-22T19:55:05.006Z,21.30
2018-04-22T19:57:34.110Z,21.30
2018-04-22T20:00:03.126Z,21.20
2018-04-22T20:02:31.371Z,21.10
2018-04-22T20:05:00.677Z,21.10
2018-04-22T20:07:28.917Z,21.10
2018-04-22T20:09:57.162Z,21.10
2018-04-22T20:12:25.411Z,21.10
2018-04-22T20:14:53.797Z,21.10
2018-04-22T20:17:22.048Z,21.00
2018-04-22T20:19:51.062Z,21.00
2018-04-22T20:22:19.314Z,21.00
2018-04-22T20:24:48.325Z,21.00
2018-04-22T20:27:16.582Z,20.90
2018-04-22T20:29:45.594Z,20.90
2018-04-22T20:32:13.986Z,20.90
2018-04-22T20:34:42.238Z,20.90
2018-04-22T20:37:11.250Z,20.90
2018-04-22T20:39:39.507Z,20.80
2018-04-22T20:42:08.518Z,20.80
2018-04-22T20:44:36.754Z,20.70
2018-04-22T20:47:04.998Z,20.70
2018-04-22T20:49:33.271Z,20.70
2018-04-22T20:52:01.518Z,20.70
2018-04-22T20:54:29.749Z,20.70
2018-04-22T20:56:59.118Z,20.70
2018-04-22T20:59:27.366Z,20.60
2018-04-22T21:01:55.622Z,20.70
2018-04-22T21:04:24.215Z,20.70
2018-04-22T21:06:53.222Z,20.70
2018-04-22T21:09:21.457Z,20.70
2018-04-22T21:11:49.709Z,20.70
2018-04-22T21:14:17.973Z,20.80
2018-04-22T21:16:46.233Z,20.80
2018-04-22T21:19:14.483Z,20.80
2018-04-22T21:21:43.481Z,20.80
2018-04-22T21:24:12.501Z,20.80
2018-04-22T21:26:40.960Z,20.70
2018-04-22T21:29:09.193Z,20.70
2018-04-22T21:31:37.422Z,20.70
2018-04-22T21:34:05.693Z,20.70
2018-04-22T21:36:33.943Z,20.70
2018-04-22T21:39:02.947Z,20.60
2018-04-22T21:41:31.958Z,20.60
2018-04-22T21:44:00.246Z,20.50
2018-04-22T21:46:28.466Z,20.60
2018-04-22T21:48:56.718Z,20.50
2018-04-22T21:51:25.049Z,20.50
2018-04-22T21:53:53.349Z,20.50
2018-04-22T21:56:21.598Z,20.40
2018-04-22T21:58:50.670Z,20.40
2018-04-22T22:01:18.912Z,20.40
2018-04-22T22:03:47.157Z,20.40
2018-04-22T22:06:15.403Z,20.40
2018-04-22T22:08:44.399Z,20.30
2018-04-22T22:11:13.409Z,20.20
2018-04-22T22:13:41.644Z,20.20
2018-04-22T22:16:09.960Z,20.20
2018-04-22T22:18:38.978Z,20.00
2018-04-22T22:21:07.221Z,20.00
2018-04-22T22:23:36.224Z,19.90
2018-04-22T22:26:04.467Z,19.80
2018-04-22T22:28:33.003Z,19.90
2018-04-22T22:31:01.226Z,19.80
2018-04-22T22:33:29.454Z,19.80
2018-04-22T22:35:57.806Z,19.70
2018-04-22T22:38:26.809Z,19.60
2018-04-22T22:40:55.061Z,19.60
2018-04-22T22:43:24.071Z,19.60
2018-04-22T22:45:52.326Z,19.50
2018-04-22T22:48:21.340Z,19.50
2018-04-22T22:50:49.582Z,19.50
2018-04-22T22:53:17.825Z,19.50
2018-04-22T22:55:46.071Z,19.40
2018-04-22T22:58:15.058Z,19.40
2018-04-22T23:00:44.546Z,19.30
2018-04-22T23:03:13.543Z,19.30
2018-04-22T23:05:42.546Z,19.30
2018-04-22T23:08:11.556Z,19.30
2018-04-22T23:10:39.814Z,19.20
2018-04-22T23:13:08.829Z,19.20
2018-04-22T23:15:37.113Z,19.20
2018-04-22T23:18:05.349Z,19.20
2018-04-22T23:20:34.354Z,19.20
2018-04-22T23:23:02.704Z,19.10
2018-04-22T23:25:30.924Z,19.10
2018-04-22T23:27:59.170Z,19.10
2018-04-22T23:30:27.401Z,19.00
2018-04-22T23:32:55.642Z,19.00
2018-04-22T23:35:23.893Z,19.00
2018-04-22T23:37:52.897Z,18.90
2018-04-22T23:40:21.158Z,18.90
2018-04-22T23:42:50.217Z,19.00
2018-04-22T23:45:18.398Z,18.90
2018-04-22T23:47:46.635Z,18.90
2018-04-22T23:50:14.908Z,19.00
2018-04-22T23:52:43.150Z,19.00
2018-04-22T23:55:12.171Z,19.00
2018-04-22T23:57:40.406Z,19.00
